sensor_id;sensor_type;location;lat;lon;timestamp;pressure;altitude;pressure_sealevel;temperature;humidity
20930;BME280;21895;47.072;15.132;2023-08-06T00:00:30;95596.00;;;17.57;93.11
20930;BME280;21895;47.072;15.132;2023-08-06T00:02:57;95601.00;;;17.64;91.77
20930;BME280;21895;47.072;15.132;2023-08-06T00:05:24;95591.00;;;17.65;90.83
20930;BME280;21895;47.072;15.132;2023-08-06T00:07:51;95589.00;;;17.51;91.61
20930;BME280;21895;47.072;15.132;2023-08-06T00:10:17;95586.00;;;17.51;92.02
20930;BME280;21895;47.072;15.132;2023-08-06T00:12:44;95583.00;;;17.49;92.36
20930;BME280;21895;47.072;15.132;2023-08-06T00:15:13;95585.00;;;17.52;92.07
20930;BME280;21895;47.072;15.132;2023-08-06T00:17:40;95586.00;;;17.49;92.08
20930;BME280;21895;47.072;15.132;2023-08-06T00:20:07;95585.00;;;17.61;90.85
20930;BME280;21895;47.072;15.132;2023-08-06T00:22:36;95569.00;;;17.50;90.74
20930;BME280;21895;47.072;15.132;2023-08-06T00:25:05;95572.00;;;17.43;91.41
20930;BME280;21895;47.072;15.132;2023-08-06T00:27:31;95570.00;;;17.39;91.80
20930;BME280;21895;47.072;15.132;2023-08-06T00:30:00;95585.00;;;17.35;92.00
20930;BME280;21895;47.072;15.132;2023-08-06T00:32:27;95581.00;;;17.32;91.96
20930;BME280;21895;47.072;15.132;2023-08-06T00:34:54;95582.00;;;17.26;91.74
20930;BME280;21895;47.072;15.132;2023-08-06T00:37:20;95587.00;;;17.36;91.35
20930;BME280;21895;47.072;15.132;2023-08-06T00:39:47;95590.00;;;17.33;91.47
20930;BME280;21895;47.072;15.132;2023-08-06T00:42:13;95593.00;;;17.33;91.88
20930;BME280;21895;47.072;15.132;2023-08-06T00:44:40;95586.00;;;17.30;92.46
20930;BME280;21895;47.072;15.132;2023-08-06T00:47:08;95589.00;;;17.60;90.80
20930;BME280;21895;47.072;15.132;2023-08-06T00:49:36;95585.00;;;17.52;90.15
20930;BME280;21895;47.072;15.132;2023-08-06T00:52:05;95579.00;;;17.47;90.96
20930;BME280;21895;47.072;15.132;2023-08-06T00:54:34;95577.00;;;17.50;91.60
20930;BME280;21895;47.072;15.132;2023-08-06T00:57:04;95592.00;;;17.50;90.88
20930;BME280;21895;47.072;15.132;2023-08-06T00:59:33;95582.00;;;17.61;90.08
20930;BME280;21895;47.072;15.132;2023-08-06T01:02:01;95584.00;;;17.43;90.33
20930;BME280;21895;47.072;15.132;2023-08-06T01:04:28;95585.00;;;17.31;91.47
20930;BME280;21895;47.072;15.132;2023-08-06T01:17:19;95575.00;;;17.34;92.58
20930;BME280;21895;47.072;15.132;2023-08-06T01:19:46;95558.00;;;17.29;90.66
20930;BME280;21895;47.072;15.132;2023-08-06T01:22:13;95555.00;;;17.16;91.05
20930;BME280;21895;47.072;15.132;2023-08-06T01:24:49;95553.00;;;17.14;91.49
20930;BME280;21895;47.072;15.132;2023-08-06T01:28:11;95557.00;;;17.12;92.07
20930;BME280;21895;47.072;15.132;2023-08-06T01:30:42;95560.00;;;17.09;91.60
20930;BME280;21895;47.072;15.132;2023-08-06T01:33:16;95557.00;;;17.07;91.84
20930;BME280;21895;47.072;15.132;2023-08-06T01:35:48;95557.00;;;17.08;91.09
20930;BME280;21895;47.072;15.132;2023-08-06T01:38:15;95552.00;;;17.14;89.90
20930;BME280;21895;47.072;15.132;2023-08-06T01:40:42;95548.00;;;17.28;89.32
20930;BME280;21895;47.072;15.132;2023-08-06T01:43:09;95542.00;;;17.21;88.67
20930;BME280;21895;47.072;15.132;2023-08-06T01:45:35;95534.00;;;17.02;89.85
20930;BME280;21895;47.072;15.132;2023-08-06T01:48:05;95541.00;;;17.21;88.87
20930;BME280;21895;47.072;15.132;2023-08-06T01:50:31;95539.00;;;17.33;88.26
20930;BME280;21895;47.072;15.132;2023-08-06T01:52:58;95551.00;;;17.39;87.11
20930;BME280;21895;47.072;15.132;2023-08-06T01:55:25;95542.00;;;17.17;88.63
20930;BME280;21895;47.072;15.132;2023-08-06T01:57:51;95536.00;;;17.00;90.35
20930;BME280;21895;47.072;15.132;2023-08-06T02:00:18;95537.00;;;17.04;90.90
20930;BME280;21895;47.072;15.132;2023-08-06T02:02:44;95533.00;;;17.07;91.23
20930;BME280;21895;47.072;15.132;2023-08-06T02:05:11;95537.00;;;17.11;90.45
20930;BME280;21895;47.072;15.132;2023-08-06T02:07:37;95525.00;;;17.12;90.30
20930;BME280;21895;47.072;15.132;2023-08-06T02:10:05;95526.00;;;17.11;91.54
20930;BME280;21895;47.072;15.132;2023-08-06T02:12:31;95528.00;;;17.35;89.27
20930;BME280;21895;47.072;15.132;2023-08-06T02:14:58;95526.00;;;17.11;89.87
20930;BME280;21895;47.072;15.132;2023-08-06T02:17:24;95527.00;;;17.15;90.59
20930;BME280;21895;47.072;15.132;2023-08-06T02:19:51;95521.00;;;17.15;89.83
20930;BME280;21895;47.072;15.132;2023-08-06T02:22:20;95517.00;;;17.02;90.54
20930;BME280;21895;47.072;15.132;2023-08-06T02:24:49;95519.00;;;17.04;91.08
20930;BME280;21895;47.072;15.132;2023-08-06T02:27:16;95515.00;;;16.92;91.13
20930;BME280;21895;47.072;15.132;2023-08-06T02:29:47;95511.00;;;16.89;91.66
20930;BME280;21895;47.072;15.132;2023-08-06T02:32:16;95511.00;;;16.84;91.48
20930;BME280;21895;47.072;15.132;2023-08-06T02:34:43;95513.00;;;16.85;91.68
20930;BME280;21895;47.072;15.132;2023-08-06T02:37:09;95514.00;;;16.88;91.84
20930;BME280;21895;47.072;15.132;2023-08-06T02:39:36;95513.00;;;16.87;90.86
20930;BME280;21895;47.072;15.132;2023-08-06T02:42:07;95507.00;;;16.93;89.34
20930;BME280;21895;47.072;15.132;2023-08-06T02:44:34;95513.00;;;17.08;87.82
20930;BME280;21895;47.072;15.132;2023-08-06T02:47:01;95515.00;;;16.85;88.58
20930;BME280;21895;47.072;15.132;2023-08-06T02:49:28;95514.00;;;16.86;89.33
20930;BME280;21895;47.072;15.132;2023-08-06T02:51:54;95509.00;;;16.93;89.13
20930;BME280;21895;47.072;15.132;2023-08-06T02:54:21;95512.00;;;16.88;89.29
20930;BME280;21895;47.072;15.132;2023-08-06T02:56:48;95514.00;;;16.91;89.97
20930;BME280;21895;47.072;15.132;2023-08-06T02:59:14;95519.00;;;16.99;89.37
20930;BME280;21895;47.072;15.132;2023-08-06T03:01:41;95519.00;;;16.89;90.04
20930;BME280;21895;47.072;15.132;2023-08-06T03:04:08;95518.00;;;16.80;91.03
20930;BME280;21895;47.072;15.132;2023-08-06T03:06:35;95529.00;;;16.87;90.96
20930;BME280;21895;47.072;15.132;2023-08-06T03:09:01;95510.00;;;16.99;89.76
20930;BME280;21895;47.072;15.132;2023-08-06T03:11:31;95520.00;;;17.28;87.32
20930;BME280;21895;47.072;15.132;2023-08-06T03:13:58;95513.00;;;16.96;88.97
20930;BME280;21895;47.072;15.132;2023-08-06T03:16:24;95512.00;;;16.88;90.02
20930;BME280;21895;47.072;15.132;2023-08-06T03:18:51;95515.00;;;16.93;90.09
20930;BME280;21895;47.072;15.132;2023-08-06T03:21:17;95520.00;;;17.05;88.43
20930;BME280;21895;47.072;15.132;2023-08-06T03:23:47;95518.00;;;16.93;88.97
20930;BME280;21895;47.072;15.132;2023-08-06T03:26:14;95510.00;;;16.93;89.60
20930;BME280;21895;47.072;15.132;2023-08-06T03:28:41;95522.00;;;16.77;90.05
20930;BME280;21895;47.072;15.132;2023-08-06T03:31:08;95515.00;;;16.87;88.73
20930;BME280;21895;47.072;15.132;2023-08-06T03:33:34;95517.00;;;16.72;90.07
20930;BME280;21895;47.072;15.132;2023-08-06T03:36:01;95513.00;;;16.70;90.28
20930;BME280;21895;47.072;15.132;2023-08-06T03:38:28;95508.00;;;16.61;91.12
20930;BME280;21895;47.072;15.132;2023-08-06T03:40:54;95512.00;;;16.57;91.71
20930;BME280;21895;47.072;15.132;2023-08-06T03:43:21;95515.00;;;16.82;89.91
20930;BME280;21895;47.072;15.132;2023-08-06T03:45:47;95512.00;;;16.56;91.18
20930;BME280;21895;47.072;15.132;2023-08-06T03:48:14;95505.00;;;16.52;91.60
20930;BME280;21895;47.072;15.132;2023-08-06T03:50:41;95502.00;;;16.52;91.10
20930;BME280;21895;47.072;15.132;2023-08-06T03:53:07;95494.00;;;16.49;91.13
20930;BME280;21895;47.072;15.132;2023-08-06T03:55:34;95502.00;;;16.56;90.64
20930;BME280;21895;47.072;15.132;2023-08-06T03:58:00;95493.00;;;16.56;90.35
20930;BME280;21895;47.072;15.132;2023-08-06T04:00:27;95501.00;;;16.59;90.47
20930;BME280;21895;47.072;15.132;2023-08-06T04:02:54;95500.00;;;16.94;88.09
20930;BME280;21895;47.072;15.132;2023-08-06T04:05:20;95488.00;;;16.68;88.63
20930;BME280;21895;47.072;15.132;2023-08-06T04:07:47;95487.00;;;16.53;90.04
20930;BME280;21895;47.072;15.132;2023-08-06T04:10:13;95488.00;;;16.47;91.00
20930;BME280;21895;47.072;15.132;2023-08-06T04:12:40;95497.00;;;16.43;91.96
20930;BME280;21895;47.072;15.132;2023-08-06T04:15:07;95490.00;;;16.47;92.61
20930;BME280;21895;47.072;15.132;2023-08-06T04:17:34;95484.00;;;16.53;91.34
20930;BME280;21895;47.072;15.132;2023-08-06T04:20:00;95490.00;;;16.47;91.39
20930;BME280;21895;47.072;15.132;2023-08-06T04:22:29;95479.00;;;16.57;90.99
20930;BME280;21895;47.072;15.132;2023-08-06T04:24:55;95488.00;;;16.54;91.03
20930;BME280;21895;47.072;15.132;2023-08-06T04:27:22;95477.00;;;16.74;89.27
20930;BME280;21895;47.072;15.132;2023-08-06T04:29:48;95484.00;;;16.63;89.80
20930;BME280;21895;47.072;15.132;2023-08-06T04:32:15;95485.00;;;16.53;90.41
20930;BME280;21895;47.072;15.132;2023-08-06T04:34:42;95474.00;;;16.52;90.88
20930;BME280;21895;47.072;15.132;2023-08-06T04:37:09;95473.00;;;16.61;90.51
20930;BME280;21895;47.072;15.132;2023-08-06T04:39:36;95473.00;;;16.62;90.03
20930;BME280;21895;47.072;15.132;2023-08-06T04:42:03;95485.00;;;16.45;90.63
20930;BME280;21895;47.072;15.132;2023-08-06T04:44:29;95486.00;;;16.52;91.05
20930;BME280;21895;47.072;15.132;2023-08-06T04:46:56;95490.00;;;16.52;90.37
20930;BME280;21895;47.072;15.132;2023-08-06T04:49:23;95485.00;;;16.48;91.09
20930;BME280;21895;47.072;15.132;2023-08-06T04:51:49;95498.00;;;16.42;91.70
20930;BME280;21895;47.072;15.132;2023-08-06T04:54:16;95502.00;;;16.58;91.09
20930;BME280;21895;47.072;15.132;2023-08-06T04:56:43;95492.00;;;16.69;89.68
20930;BME280;21895;47.072;15.132;2023-08-06T04:59:09;95501.00;;;16.69;89.37
20930;BME280;21895;47.072;15.132;2023-08-06T05:01:36;95506.00;;;16.72;89.49
20930;BME280;21895;47.072;15.132;2023-08-06T05:04:03;95504.00;;;16.73;89.37
20930;BME280;21895;47.072;15.132;2023-08-06T05:06:29;95513.00;;;16.77;89.60
20930;BME280;21895;47.072;15.132;2023-08-06T05:08:56;95515.00;;;16.80;88.35
20930;BME280;21895;47.072;15.132;2023-08-06T05:11:24;95524.00;;;16.65;88.21
20930;BME280;21895;47.072;15.132;2023-08-06T05:13:50;95531.00;;;16.64;89.63
20930;BME280;21895;47.072;15.132;2023-08-06T05:16:17;95534.00;;;16.71;90.36
20930;BME280;21895;47.072;15.132;2023-08-06T05:18:43;95540.00;;;16.70;89.86
20930;BME280;21895;47.072;15.132;2023-08-06T05:21:10;95536.00;;;16.65;90.23
20930;BME280;21895;47.072;15.132;2023-08-06T05:23:37;95548.00;;;16.70;90.44
20930;BME280;21895;47.072;15.132;2023-08-06T05:26:03;95562.00;;;16.72;89.78
20930;BME280;21895;47.072;15.132;2023-08-06T05:28:30;95564.00;;;16.68;89.59
20930;BME280;21895;47.072;15.132;2023-08-06T05:30:56;95569.00;;;16.63;90.01
20930;BME280;21895;47.072;15.132;2023-08-06T05:33:23;95569.00;;;16.71;89.79
20930;BME280;21895;47.072;15.132;2023-08-06T05:35:50;95576.00;;;16.83;89.87
20930;BME280;21895;47.072;15.132;2023-08-06T05:38:17;95580.00;;;16.94;88.28
20930;BME280;21895;47.072;15.132;2023-08-06T05:40:43;95570.00;;;16.84;87.88
20930;BME280;21895;47.072;15.132;2023-08-06T05:43:10;95572.00;;;16.82;88.26
20930;BME280;21895;47.072;15.132;2023-08-06T05:45:36;95577.00;;;16.75;88.90
20930;BME280;21895;47.072;15.132;2023-08-06T05:48:03;95580.00;;;16.90;87.34
20930;BME280;21895;47.072;15.132;2023-08-06T05:50:30;95579.00;;;17.00;86.50
20930;BME280;21895;47.072;15.132;2023-08-06T05:52:57;95570.00;;;16.84;87.26
20930;BME280;21895;47.072;15.132;2023-08-06T05:55:27;95573.00;;;16.81;86.91
20930;BME280;21895;47.072;15.132;2023-08-06T05:57:54;95578.00;;;16.74;86.94
20930;BME280;21895;47.072;15.132;2023-08-06T06:00:21;95568.00;;;16.65;87.29
20930;BME280;21895;47.072;15.132;2023-08-06T06:02:48;95579.00;;;16.72;87.87
20930;BME280;21895;47.072;15.132;2023-08-06T06:05:15;95569.00;;;16.68;87.72
20930;BME280;21895;47.072;15.132;2023-08-06T06:07:41;95569.00;;;16.64;88.38
20930;BME280;21895;47.072;15.132;2023-08-06T06:10:08;95574.00;;;16.64;89.66
20930;BME280;21895;47.072;15.132;2023-08-06T06:12:35;95570.00;;;16.87;88.00
20930;BME280;21895;47.072;15.132;2023-08-06T06:15:02;95571.00;;;16.98;87.04
20930;BME280;21895;47.072;15.132;2023-08-06T06:17:29;95577.00;;;17.02;87.02
20930;BME280;21895;47.072;15.132;2023-08-06T06:19:56;95583.00;;;17.13;85.71
20930;BME280;21895;47.072;15.132;2023-08-06T06:22:22;95579.00;;;17.07;85.98
20930;BME280;21895;47.072;15.132;2023-08-06T06:24:49;95583.00;;;17.16;85.44
20930;BME280;21895;47.072;15.132;2023-08-06T06:27:16;95593.00;;;17.23;85.22
20930;BME280;21895;47.072;15.132;2023-08-06T06:29:42;95586.00;;;17.15;85.84
20930;BME280;21895;47.072;15.132;2023-08-06T06:32:09;95584.00;;;17.08;86.33
20930;BME280;21895;47.072;15.132;2023-08-06T06:34:35;95591.00;;;17.04;86.13
20930;BME280;21895;47.072;15.132;2023-08-06T06:37:02;95594.00;;;17.04;86.51
20930;BME280;21895;47.072;15.132;2023-08-06T06:39:28;95583.00;;;17.15;86.20
20930;BME280;21895;47.072;15.132;2023-08-06T06:41:55;95595.00;;;17.14;86.08
20930;BME280;21895;47.072;15.132;2023-08-06T06:44:22;95593.00;;;17.31;86.05
20930;BME280;21895;47.072;15.132;2023-08-06T06:46:48;95584.00;;;17.36;85.59
20930;BME280;21895;47.072;15.132;2023-08-06T06:49:15;95590.00;;;17.33;85.71
20930;BME280;21895;47.072;15.132;2023-08-06T06:51:41;95590.00;;;17.48;84.63
20930;BME280;21895;47.072;15.132;2023-08-06T06:54:08;95583.00;;;17.45;84.88
20930;BME280;21895;47.072;15.132;2023-08-06T06:56:35;95583.00;;;17.54;84.69
20930;BME280;21895;47.072;15.132;2023-08-06T06:59:01;95588.00;;;17.66;84.21
20930;BME280;21895;47.072;15.132;2023-08-06T07:01:28;95588.00;;;17.85;82.96
20930;BME280;21895;47.072;15.132;2023-08-06T07:03:54;95581.00;;;17.70;83.57
20930;BME280;21895;47.072;15.132;2023-08-06T07:06:21;95590.00;;;17.73;84.73
20930;BME280;21895;47.072;15.132;2023-08-06T07:08:48;95587.00;;;17.78;84.59
20930;BME280;21895;47.072;15.132;2023-08-06T07:11:14;95588.00;;;17.92;81.76
20930;BME280;21895;47.072;15.132;2023-08-06T07:13:41;95568.00;;;17.88;81.34
20930;BME280;21895;47.072;15.132;2023-08-06T07:16:07;95569.00;;;17.90;81.99
20930;BME280;21895;47.072;15.132;2023-08-06T07:18:37;95577.00;;;18.00;81.95
20930;BME280;21895;47.072;15.132;2023-08-06T07:21:04;95572.00;;;18.15;81.65
20930;BME280;21895;47.072;15.132;2023-08-06T07:23:30;95571.00;;;18.22;81.45
20930;BME280;21895;47.072;15.132;2023-08-06T07:25:57;95572.00;;;18.28;81.96
20930;BME280;21895;47.072;15.132;2023-08-06T07:28:23;95569.00;;;18.24;82.07
20930;BME280;21895;47.072;15.132;2023-08-06T07:30:50;95572.00;;;18.30;81.39
20930;BME280;21895;47.072;15.132;2023-08-06T07:33:17;95570.00;;;18.32;80.49
20930;BME280;21895;47.072;15.132;2023-08-06T07:35:44;95571.00;;;18.36;79.03
20930;BME280;21895;47.072;15.132;2023-08-06T07:38:10;95565.00;;;18.63;78.54
20930;BME280;21895;47.072;15.132;2023-08-06T07:40:37;95558.00;;;18.61;78.30
20930;BME280;21895;47.072;15.132;2023-08-06T07:43:04;95561.00;;;18.68;78.39
20930;BME280;21895;47.072;15.132;2023-08-06T07:45:35;95568.00;;;18.74;78.51
20930;BME280;21895;47.072;15.132;2023-08-06T07:48:05;95561.00;;;19.25;76.86
20930;BME280;21895;47.072;15.132;2023-08-06T07:50:32;95558.00;;;19.04;77.03
20930;BME280;21895;47.072;15.132;2023-08-06T07:52:58;95550.00;;;19.09;75.35
20930;BME280;21895;47.072;15.132;2023-08-06T07:55:25;95556.00;;;19.06;75.54
20930;BME280;21895;47.072;15.132;2023-08-06T07:57:53;95549.00;;;19.21;75.82
20930;BME280;21895;47.072;15.132;2023-08-06T08:00:19;95551.00;;;19.38;76.13
20930;BME280;21895;47.072;15.132;2023-08-06T08:02:46;95550.00;;;19.44;76.23
20930;BME280;21895;47.072;15.132;2023-08-06T08:05:13;95544.00;;;19.47;73.91
20930;BME280;21895;47.072;15.132;2023-08-06T08:07:39;95551.00;;;19.60;72.85
20930;BME280;21895;47.072;15.132;2023-08-06T08:10:07;95553.00;;;19.80;72.47
20930;BME280;21895;47.072;15.132;2023-08-06T08:12:33;95545.00;;;19.86;72.74
20930;BME280;21895;47.072;15.132;2023-08-06T08:15:00;95554.00;;;19.88;71.61
20930;BME280;21895;47.072;15.132;2023-08-06T08:17:27;95550.00;;;19.83;70.14
20930;BME280;21895;47.072;15.132;2023-08-06T08:19:54;95553.00;;;19.94;70.56
20930;BME280;21895;47.072;15.132;2023-08-06T08:22:20;95543.00;;;20.07;64.73
20930;BME280;21895;47.072;15.132;2023-08-06T08:24:47;95546.00;;;20.11;63.21
20930;BME280;21895;47.072;15.132;2023-08-06T08:27:13;95551.00;;;20.28;62.82
20930;BME280;21895;47.072;15.132;2023-08-06T08:29:40;95550.00;;;20.38;60.29
20930;BME280;21895;47.072;15.132;2023-08-06T08:32:06;95551.00;;;20.43;59.99
20930;BME280;21895;47.072;15.132;2023-08-06T08:34:33;95556.00;;;20.53;59.89
20930;BME280;21895;47.072;15.132;2023-08-06T08:37:00;95547.00;;;20.44;58.79
20930;BME280;21895;47.072;15.132;2023-08-06T08:39:26;95550.00;;;20.41;57.14
20930;BME280;21895;47.072;15.132;2023-08-06T08:41:53;95559.00;;;20.06;58.65
20930;BME280;21895;47.072;15.132;2023-08-06T08:44:20;95551.00;;;20.08;57.11
20930;BME280;21895;47.072;15.132;2023-08-06T08:46:48;95553.00;;;19.99;57.83
20930;BME280;21895;47.072;15.132;2023-08-06T08:49:15;95557.00;;;20.17;58.34
20930;BME280;21895;47.072;15.132;2023-08-06T08:51:44;95563.00;;;20.42;60.49
20930;BME280;21895;47.072;15.132;2023-08-06T08:54:15;95565.00;;;20.54;63.61
20930;BME280;21895;47.072;15.132;2023-08-06T08:56:41;95566.00;;;20.34;65.66
20930;BME280;21895;47.072;15.132;2023-08-06T08:59:10;95570.00;;;20.36;67.43
20930;BME280;21895;47.072;15.132;2023-08-06T09:01:39;95573.00;;;20.43;68.50
20930;BME280;21895;47.072;15.132;2023-08-06T09:04:10;95574.00;;;20.42;67.73
20930;BME280;21895;47.072;15.132;2023-08-06T09:06:41;95565.00;;;20.47;62.91
20930;BME280;21895;47.072;15.132;2023-08-06T09:09:27;95569.00;;;20.83;64.07
20930;BME280;21895;47.072;15.132;2023-08-06T09:12:00;95574.00;;;20.86;65.65
20930;BME280;21895;47.072;15.132;2023-08-06T09:14:30;95571.00;;;20.89;65.02
20930;BME280;21895;47.072;15.132;2023-08-06T09:16:57;95572.00;;;20.96;63.10
20930;BME280;21895;47.072;15.132;2023-08-06T09:19:24;95580.00;;;21.05;63.78
20930;BME280;21895;47.072;15.132;2023-08-06T09:21:53;95570.00;;;21.13;66.62
20930;BME280;21895;47.072;15.132;2023-08-06T09:24:22;95578.00;;;21.12;65.88
20930;BME280;21895;47.072;15.132;2023-08-06T09:26:49;95576.00;;;21.09;65.10
20930;BME280;21895;47.072;15.132;2023-08-06T09:29:16;95579.00;;;21.15;62.82
20930;BME280;21895;47.072;15.132;2023-08-06T09:31:52;95583.00;;;21.33;63.52
20930;BME280;21895;47.072;15.132;2023-08-06T09:34:22;95585.00;;;21.45;63.17
20930;BME280;21895;47.072;15.132;2023-08-06T09:36:51;95580.00;;;21.50;65.38
20930;BME280;21895;47.072;15.132;2023-08-06T09:39:21;95575.00;;;21.64;62.09
20930;BME280;21895;47.072;15.132;2023-08-06T09:41:48;95587.00;;;21.98;58.46
20930;BME280;21895;47.072;15.132;2023-08-06T09:44:21;95571.00;;;22.23;59.38
20930;BME280;21895;47.072;15.132;2023-08-06T09:47:02;95573.00;;;22.50;55.92
20930;BME280;21895;47.072;15.132;2023-08-06T09:49:42;95579.00;;;22.86;53.85
20930;BME280;21895;47.072;15.132;2023-08-06T09:52:12;95586.00;;;23.32;56.20
20930;BME280;21895;47.072;15.132;2023-08-06T09:54:39;95591.00;;;23.51;56.07
20930;BME280;21895;47.072;15.132;2023-08-06T09:57:06;95591.00;;;23.67;54.50
20930;BME280;21895;47.072;15.132;2023-08-06T09:59:34;95594.00;;;24.14;51.56
20930;BME280;21895;47.072;15.132;2023-08-06T10:02:06;95601.00;;;24.33;49.33
20930;BME280;21895;47.072;15.132;2023-08-06T10:04:37;95595.00;;;24.39;47.91
20930;BME280;21895;47.072;15.132;2023-08-06T10:07:08;95592.00;;;24.69;46.24
20930;BME280;21895;47.072;15.132;2023-08-06T10:09:35;95598.00;;;25.15;44.89
20930;BME280;21895;47.072;15.132;2023-08-06T10:12:02;95600.00;;;25.35;45.23
20930;BME280;21895;47.072;15.132;2023-08-06T10:14:33;95603.00;;;25.52;42.70
20930;BME280;21895;47.072;15.132;2023-08-06T10:17:01;95596.00;;;25.39;42.18
20930;BME280;21895;47.072;15.132;2023-08-06T10:19:30;95597.00;;;25.53;41.49
20930;BME280;21895;47.072;15.132;2023-08-06T10:22:33;95598.00;;;25.40;44.79
20930;BME280;21895;47.072;15.132;2023-08-06T10:25:01;95593.00;;;25.54;39.36
20930;BME280;21895;47.072;15.132;2023-08-06T10:27:53;95607.00;;;25.51;38.86
20930;BME280;21895;47.072;15.132;2023-08-06T10:30:33;95600.00;;;25.23;39.39
20930;BME280;21895;47.072;15.132;2023-08-06T10:33:04;95597.00;;;25.57;39.58
20930;BME280;21895;47.072;15.132;2023-08-06T10:35:50;95606.00;;;25.43;38.15
20930;BME280;21895;47.072;15.132;2023-08-06T10:38:19;95600.00;;;25.16;41.00
20930;BME280;21895;47.072;15.132;2023-08-06T10:41:22;95606.00;;;25.34;39.27
20930;BME280;21895;47.072;15.132;2023-08-06T10:43:49;95613.00;;;25.32;38.70
20930;BME280;21895;47.072;15.132;2023-08-06T10:46:29;95609.00;;;25.40;42.01
20930;BME280;21895;47.072;15.132;2023-08-06T10:48:55;95611.00;;;25.55;43.59
20930;BME280;21895;47.072;15.132;2023-08-06T10:51:22;95604.00;;;25.80;41.70
20930;BME280;21895;47.072;15.132;2023-08-06T10:53:50;95602.00;;;26.30;39.68
20930;BME280;21895;47.072;15.132;2023-08-06T10:56:22;95598.00;;;26.47;39.90
20930;BME280;21895;47.072;15.132;2023-08-06T10:58:51;95594.00;;;26.25;38.67
20930;BME280;21895;47.072;15.132;2023-08-06T11:01:18;95592.00;;;25.99;40.90
20930;BME280;21895;47.072;15.132;2023-08-06T11:03:46;95597.00;;;25.99;39.84
20930;BME280;21895;47.072;15.132;2023-08-06T11:06:23;95601.00;;;26.31;38.33
20930;BME280;21895;47.072;15.132;2023-08-06T11:08:53;95599.00;;;26.24;37.97
20930;BME280;21895;47.072;15.132;2023-08-06T11:11:23;95603.00;;;26.29;38.93
20930;BME280;21895;47.072;15.132;2023-08-06T11:13:51;95609.00;;;26.17;39.10
20930;BME280;21895;47.072;15.132;2023-08-06T11:16:20;95607.00;;;26.47;38.42
20930;BME280;21895;47.072;15.132;2023-08-06T11:18:48;95606.00;;;26.61;37.18
20930;BME280;21895;47.072;15.132;2023-08-06T11:21:19;95587.00;;;26.98;36.47
20930;BME280;21895;47.072;15.132;2023-08-06T11:23:45;95590.00;;;27.39;37.22
20930;BME280;21895;47.072;15.132;2023-08-06T11:26:12;95589.00;;;27.17;33.84
20930;BME280;21895;47.072;15.132;2023-08-06T11:28:41;95596.00;;;26.95;34.88
20930;BME280;21895;47.072;15.132;2023-08-06T11:31:22;95589.00;;;27.10;34.39
20930;BME280;21895;47.072;15.132;2023-08-06T11:33:55;95587.00;;;26.86;34.97
20930;BME280;21895;47.072;15.132;2023-08-06T11:36:33;95587.00;;;26.27;36.74
20930;BME280;21895;47.072;15.132;2023-08-06T11:39:01;95595.00;;;25.88;37.34
20930;BME280;21895;47.072;15.132;2023-08-06T11:41:32;95590.00;;;25.87;36.78
20930;BME280;21895;47.072;15.132;2023-08-06T11:43:59;95576.00;;;25.62;37.54
20930;BME280;21895;47.072;15.132;2023-08-06T11:46:26;95583.00;;;25.79;39.67
20930;BME280;21895;47.072;15.132;2023-08-06T11:48:58;95580.00;;;25.46;39.09
20930;BME280;21895;47.072;15.132;2023-08-06T11:51:27;95592.00;;;25.39;39.52
20930;BME280;21895;47.072;15.132;2023-08-06T11:53:58;95589.00;;;25.41;39.01
20930;BME280;21895;47.072;15.132;2023-08-06T11:56:26;95584.00;;;25.41;38.02
20930;BME280;21895;47.072;15.132;2023-08-06T11:58:55;95585.00;;;25.24;41.04
20930;BME280;21895;47.072;15.132;2023-08-06T12:01:21;95594.00;;;25.58;39.67
20930;BME280;21895;47.072;15.132;2023-08-06T12:03:48;95596.00;;;25.35;44.34
20930;BME280;21895;47.072;15.132;2023-08-06T12:06:15;95597.00;;;25.60;43.14
20930;BME280;21895;47.072;15.132;2023-08-06T12:08:41;95590.00;;;25.22;40.32
20930;BME280;21895;47.072;15.132;2023-08-06T12:11:08;95600.00;;;25.06;43.70
20930;BME280;21895;47.072;15.132;2023-08-06T12:13:35;95607.00;;;24.86;41.85
20930;BME280;21895;47.072;15.132;2023-08-06T12:16:01;95604.00;;;24.91;45.22
20930;BME280;21895;47.072;15.132;2023-08-06T12:18:28;95607.00;;;25.00;42.81
20930;BME280;21895;47.072;15.132;2023-08-06T12:20:55;95605.00;;;25.30;42.52
20930;BME280;21895;47.072;15.132;2023-08-06T12:23:21;95613.00;;;25.35;46.72
20930;BME280;21895;47.072;15.132;2023-08-06T12:25:48;95605.00;;;25.81;45.05
20930;BME280;21895;47.072;15.132;2023-08-06T12:28:15;95610.00;;;25.96;41.94
20930;BME280;21895;47.072;15.132;2023-08-06T12:30:42;95602.00;;;26.32;38.86
20930;BME280;21895;47.072;15.132;2023-08-06T12:33:10;95611.00;;;25.97;42.89
20930;BME280;21895;47.072;15.132;2023-08-06T12:35:37;95610.00;;;25.72;39.61
20930;BME280;21895;47.072;15.132;2023-08-06T12:38:04;95620.00;;;25.75;37.50
20930;BME280;21895;47.072;15.132;2023-08-06T12:40:31;95622.00;;;25.07;35.82
20930;BME280;21895;47.072;15.132;2023-08-06T12:43:03;95618.00;;;24.75;37.12
20930;BME280;21895;47.072;15.132;2023-08-06T12:45:30;95624.00;;;24.65;39.15
20930;BME280;21895;47.072;15.132;2023-08-06T12:47:56;95620.00;;;24.80;38.39
20930;BME280;21895;47.072;15.132;2023-08-06T12:50:23;95622.00;;;24.85;36.87
20930;BME280;21895;47.072;15.132;2023-08-06T12:52:50;95633.00;;;24.74;38.39
20930;BME280;21895;47.072;15.132;2023-08-06T12:55:16;95637.00;;;24.43;39.92
20930;BME280;21895;47.072;15.132;2023-08-06T12:57:43;95637.00;;;24.38;40.38
20930;BME280;21895;47.072;15.132;2023-08-06T13:00:25;95633.00;;;24.67;41.00
20930;BME280;21895;47.072;15.132;2023-08-06T13:02:52;95638.00;;;24.53;41.59
20930;BME280;21895;47.072;15.132;2023-08-06T13:05:19;95639.00;;;24.75;40.45